Time;durP1;ratioP1;P1;durP2;ratioP2;P2;SDS_P1;SDS_P2;PMS_P1;PMS_P2;Temp;Humidity;BMP_temperature;BMP_pressure;BME280_temperature;BME280_humidity;BME280_pressure;Samples;Min_cycle;Max_cycle;Signal;HPM_P1;HPM_P2
2023/06/21 00:00:45;;;;;;;14.45;6.90;;;;;;;19.24;100.00;100843.66;4947693;28;20074;-70
2023/06/21 00:03:13;;;;;;;16.85;7.32;;;;;;;19.17;100.00;100841.16;4947803;28;20405;-71
2023/06/21 00:05:39;;;;;;;15.50;7.28;;;;;;;19.04;100.00;100842.63;4947904;28;20138;-70
2023/06/21 00:08:06;;;;;;;20.27;7.97;;;;;;;19.05;100.00;100849.81;4947406;28;20055;-71
2023/06/21 00:10:33;;;;;;;17.83;8.65;;;;;;;19.08;100.00;100843.25;4976353;28;20055;-71
2023/06/21 00:13:00;;;;;;;17.52;6.78;;;;;;;18.99;100.00;100834.78;4943379;28;20051;-72
2023/06/21 00:15:27;;;;;;;15.68;7.43;;;;;;;18.92;100.00;100840.75;4950698;28;20055;-71
2023/06/21 00:17:53;;;;;;;16.52;7.60;;;;;;;18.94;100.00;100841.09;4945362;28;20069;-68
2023/06/21 00:20:20;;;;;;;14.68;7.22;;;;;;;18.85;100.00;100846.72;4942555;28;20067;-71
2023/06/21 00:22:47;;;;;;;17.60;6.97;;;;;;;18.88;100.00;100848.59;4941580;28;20079;-71
2023/06/21 00:25:14;;;;;;;14.15;6.72;;;;;;;18.76;100.00;100860.78;4947577;28;20462;-71
2023/06/21 00:27:44;;;;;;;16.58;7.35;;;;;;;18.78;100.00;100861.13;4947937;28;20059;-70
2023/06/21 00:30:10;;;;;;;15.95;7.40;;;;;;;18.63;100.00;100868.63;4950606;28;20070;-70
2023/06/21 00:32:38;;;;;;;16.02;7.55;;;;;;;18.51;100.00;100872.34;4951498;28;20055;-72
2023/06/21 00:35:06;;;;;;;14.57;7.00;;;;;;;18.51;100.00;100872.34;4953009;28;20050;-71
2023/06/21 00:37:32;;;;;;;16.48;7.43;;;;;;;18.48;100.00;100882.53;4951459;28;20051;-71
2023/06/21 00:39:59;;;;;;;15.23;7.50;;;;;;;18.45;100.00;100894.72;4950172;28;20184;-70
2023/06/21 00:42:26;;;;;;;15.63;6.75;;;;;;;18.38;100.00;100888.59;4951553;28;20062;-71
2023/06/21 00:44:53;;;;;;;15.30;7.43;;;;;;;18.38;100.00;100894.22;4952119;28;20450;-72
2023/06/21 00:47:19;;;;;;;13.95;6.32;;;;;;;18.33;100.00;100895.63;4951184;28;20059;-71
2023/06/21 00:49:46;;;;;;;12.68;5.72;;;;;;;18.29;100.00;100897.03;4951812;28;20054;-71
2023/06/21 00:52:13;;;;;;;19.90;7.40;;;;;;;18.38;100.00;100892.22;4950554;28;20051;-71
2023/06/21 00:54:41;;;;;;;12.32;5.60;;;;;;;18.28;100.00;100889.84;4949354;28;20086;-71
2023/06/21 00:57:08;;;;;;;12.63;5.93;;;;;;;18.35;100.00;100890.31;4947394;28;20109;-70
2023/06/21 00:59:35;;;;;;;12.80;5.72;;;;;;;18.31;100.00;100891.72;4949334;28;20058;-72
2023/06/21 01:02:02;;;;;;;14.43;6.15;;;;;;;18.29;100.00;100897.03;4943876;28;20155;-71
2023/06/21 01:04:32;;;;;;;11.73;5.43;;;;;;;18.15;100.00;100898.41;4951778;28;20059;-69
2023/06/21 01:07:29;;;;;;;13.52;5.90;;;;;;;18.20;100.00;100895.00;4950701;28;20047;-71
2023/06/21 01:10:13;;;;;;;12.38;5.65;;;;;;;18.17;100.00;100900.75;4950395;28;20074;-72
2023/06/21 01:12:55;;;;;;;11.82;5.20;;;;;;;18.12;100.00;100904.19;4948347;28;20055;-72
2023/06/21 01:15:25;;;;;;;12.70;5.55;;;;;;;18.12;100.00;100901.38;4950971;28;20514;-73
2023/06/21 01:17:53;;;;;;;10.43;4.50;;;;;;;18.06;100.00;100903.25;4945111;28;20058;-71
2023/06/21 01:20:28;;;;;;;13.35;5.80;;;;;;;18.02;100.00;100902.59;4952935;28;20566;-71
2023/06/21 01:23:29;;;;;;;13.65;5.65;;;;;;;18.00;100.00;100900.25;4943599;28;20086;-70
2023/06/21 01:26:09;;;;;;;11.02;5.70;;;;;;;18.10;100.00;100901.06;4943042;28;20082;-70
2023/06/21 01:28:55;;;;;;;12.95;5.05;;;;;;;18.01;100.00;100912.28;4950622;28;20062;-71
2023/06/21 01:31:23;;;;;;;11.25;5.10;;;;;;;18.08;100.00;100914.78;4945578;28;20133;-71
2023/06/21 01:33:50;;;;;;;12.45;5.20;;;;;;;18.01;100.00;100924.31;4950669;28;20059;-71
2023/06/21 01:36:18;;;;;;;14.40;5.60;;;;;;;18.04;100.00;100928.22;4938803;28;20110;-72
2023/06/21 01:38:45;;;;;;;13.23;5.93;;;;;;;18.06;100.00;100931.38;4950253;28;20082;-70
2023/06/21 01:41:12;;;;;;;13.77;5.40;;;;;;;17.89;100.00;100939.22;4948779;28;20043;-69
2023/06/21 01:43:39;;;;;;;12.23;5.25;;;;;;;17.90;100.00;100938.00;4951021;28;20059;-71
2023/06/21 01:46:07;;;;;;;12.10;5.40;;;;;;;17.92;100.00;100945.97;4950128;28;20143;-70
2023/06/21 01:48:35;;;;;;;12.73;6.40;;;;;;;17.97;100.00;100942.56;4951023;28;20509;-69
2023/06/21 01:51:04;;;;;;;12.13;6.00;;;;;;;18.05;100.00;100932.59;4950495;28;20154;-71
2023/06/21 01:53:33;;;;;;;10.27;5.72;;;;;;;18.06;100.00;100923.69;4949812;28;20093;-70
2023/06/21 01:56:05;;;;;;;13.60;6.57;;;;;;;17.98;100.00;100942.13;4949906;28;20552;-72
2023/06/21 01:58:32;;;;;;;11.98;6.35;;;;;;;17.98;100.00;100947.75;4950393;29;20474;-68
2023/06/21 02:01:01;;;;;;;13.98;6.30;;;;;;;17.94;100.00;100944.28;4949986;28;20140;-71
2023/06/21 02:03:29;;;;;;;12.77;6.18;;;;;;;17.78;100.00;100940.91;4948030;28;20059;-70
2023/06/21 02:06:00;;;;;;;14.60;6.28;;;;;;;17.90;100.00;100937.22;4954388;28;20098;-69
2023/06/21 02:08:27;;;;;;;13.65;7.10;;;;;;;17.89;100.00;100935.66;4951838;28;20062;-72
2023/06/21 02:10:54;;;;;;;16.05;6.18;;;;;;;17.85;100.00;100935.78;4957618;28;20126;-70
2023/06/21 02:13:21;;;;;;;13.43;6.68;;;;;;;17.86;100.00;100936.56;4951062;28;20051;-67
2023/06/21 02:15:48;;;;;;;13.50;6.43;;;;;;;17.90;100.00;100942.84;4947515;28;20105;-73
2023/06/21 02:18:14;;;;;;;14.65;5.70;;;;;;;17.77;100.00;100939.34;4948934;28;20821;-70
2023/06/21 02:20:41;;;;;;;13.45;6.47;;;;;;;17.87;100.00;100938.13;4950815;28;20086;-70
2023/06/21 02:23:07;;;;;;;15.07;6.78;;;;;;;17.86;100.00;100947.81;4951027;28;20055;-73
2023/06/21 02:25:36;;;;;;;13.68;6.55;;;;;;;17.88;100.00;100951.72;4949666;28;20098;-70
2023/06/21 02:28:03;;;;;;;16.35;7.38;;;;;;;17.84;100.00;100953.13;4947931;28;20407;-70
2023/06/21 02:30:30;;;;;;;16.15;6.40;;;;;;;17.84;100.00;100953.91;4948125;29;20047;-72
2023/06/21 02:32:56;;;;;;;13.90;6.90;;;;;;;17.88;100.00;100948.13;4949850;28;20075;-71
2023/06/21 02:35:23;;;;;;;13.65;6.88;;;;;;;17.85;100.00;100954.69;4950131;28;20073;-71
2023/06/21 02:37:50;;;;;;;14.00;6.35;;;;;;;17.86;100.00;100961.88;4949803;28;20047;-71
2023/06/21 02:40:17;;;;;;;16.08;6.18;;;;;;;17.81;100.00;100977.31;4950371;28;20094;-71
2023/06/21 02:42:43;;;;;;;12.80;6.35;;;;;;;17.75;100.00;100969.97;4950561;28;20494;-70
2023/06/21 02:45:10;;;;;;;14.88;6.80;;;;;;;17.83;100.00;100974.84;4949232;28;20054;-69
2023/06/21 02:47:37;;;;;;;14.82;7.07;;;;;;;17.87;100.00;100977.50;4948116;28;20059;-70
2023/06/21 02:50:04;;;;;;;14.27;6.45;;;;;;;17.83;100.00;100979.69;4950303;28;20134;-69
2023/06/21 02:52:31;;;;;;;15.65;6.57;;;;;;;17.91;100.00;100964.06;4949440;28;20097;-68
2023/06/21 02:54:58;;;;;;;13.43;6.13;;;;;;;17.88;100.00;100968.59;4949745;28;20118;-72
2023/06/21 02:57:24;;;;;;;16.25;6.53;;;;;;;17.82;100.00;100980.94;4948395;28;20477;-70
2023/06/21 02:59:51;;;;;;;12.02;6.07;;;;;;;17.88;100.00;100981.88;4950099;28;20105;-69
2023/06/21 03:02:17;;;;;;;14.95;6.80;;;;;;;17.78;100.00;100991.53;4948618;28;20043;-70
2023/06/21 03:04:45;;;;;;;14.88;6.78;;;;;;;17.78;100.00;100983.88;4948871;28;20075;-69
2023/06/21 03:07:12;;;;;;;14.60;6.35;;;;;;;17.74;100.00;100991.66;4949898;28;20775;-72
2023/06/21 03:09:38;;;;;;;14.23;6.70;;;;;;;17.76;100.00;101002.44;4949172;28;20106;-69
2023/06/21 03:12:08;;;;;;;14.75;7.65;;;;;;;17.85;100.00;101014.53;4949923;28;20327;-68
2023/06/21 03:14:37;;;;;;;14.90;7.18;;;;;;;17.85;100.00;101020.16;4954606;28;20568;-70
2023/06/21 03:17:05;;;;;;;15.35;7.55;;;;;;;17.76;100.00;101014.50;4947195;28;20078;-70
2023/06/21 03:19:32;;;;;;;16.48;7.38;;;;;;;17.83;100.00;101024.69;4949682;28;20138;-70
2023/06/21 03:21:59;;;;;;;15.98;7.47;;;;;;;17.77;100.00;101020.88;4949947;28;20082;-71
2023/06/21 03:24:26;;;;;;;13.98;6.82;;;;;;;17.74;100.00;101016.16;4948924;28;20179;-70
2023/06/21 03:26:53;;;;;;;14.68;6.93;;;;;;;17.77;100.00;101015.25;4949673;28;20054;-69
2023/06/21 03:29:20;;;;;;;14.68;7.03;;;;;;;17.79;100.00;101016.34;4948100;28;20047;-68
2023/06/21 03:31:47;;;;;;;15.35;7.25;;;;;;;17.75;100.00;101012.13;4949356;28;20125;-68
2023/06/21 03:34:13;;;;;;;16.13;7.75;;;;;;;17.82;100.00;101014.69;4949657;28;20144;-70
2023/06/21 03:36:40;;;;;;;15.52;6.63;;;;;;;17.82;100.00;101021.06;4948727;28;20142;-69
2023/06/21 03:39:06;;;;;;;14.93;6.78;;;;;;;17.69;100.00;101025.22;4949580;28;20047;-69
2023/06/21 03:41:33;;;;;;;15.05;7.32;;;;;;;17.77;100.00;101024.50;4949674;28;20070;-69
2023/06/21 03:43:59;;;;;;;17.95;7.65;;;;;;;17.73;100.00;101028.69;4946300;28;20047;-70
2023/06/21 03:46:26;;;;;;;13.52;7.30;;;;;;;17.75;100.00;101029.00;4947676;28;20102;-69
2023/06/21 03:48:53;;;;;;;15.38;7.85;;;;;;;17.71;100.00;101029.13;4949519;28;20051;-70
2023/06/21 03:51:21;;;;;;;16.40;7.80;;;;;;;17.69;100.00;101030.84;4948760;28;20054;-74
2023/06/21 03:53:48;;;;;;;14.98;7.93;;;;;;;17.73;100.00;101035.09;4941500;29;20657;-70
2023/06/21 03:56:14;;;;;;;16.15;7.28;;;;;;;17.70;100.00;101043.66;4947273;28;20082;-72
2023/06/21 03:58:41;;;;;;;17.13;8.20;;;;;;;17.75;100.00;101034.63;4946604;28;20134;-68
2023/06/21 04:01:08;;;;;;;15.73;7.20;;;;;;;17.72;100.00;101043.97;4949457;28;20039;-71
2023/06/21 04:03:34;;;;;;;14.68;7.82;;;;;;;17.79;100.00;101038.09;4955973;28;20055;-72
2023/06/21 04:06:01;;;;;;;17.30;8.43;;;;;;;17.82;100.00;101040.75;4948110;28;20517;-69
2023/06/21 04:08:28;;;;;;;16.05;8.00;;;;;;;17.73;100.00;101056.78;4949204;28;20054;-69
2023/06/21 04:10:55;;;;;;;17.30;8.10;;;;;;;17.87;100.00;101050.63;4947050;28;20652;-72
2023/06/21 04:13:22;;;;;;;16.48;8.68;;;;;;;17.95;100.00;101051.97;4947601;29;20433;-70
2023/06/21 04:15:49;;;;;;;17.20;8.10;;;;;;;17.98;100.00;101045.41;4944588;28;20067;-72
2023/06/21 04:18:15;;;;;;;18.00;8.63;;;;;;;17.99;100.00;101049.81;4948032;28;20047;-68
2023/06/21 04:20:42;;;;;;;16.95;8.30;;;;;;;18.04;100.00;101049.19;4948944;28;20577;-71
2023/06/21 04:23:08;;;;;;;16.00;8.20;;;;;;;17.98;100.00;101051.03;4948644;28;20138;-72
2023/06/21 04:25:35;;;;;;;15.65;8.38;;;;;;;18.04;100.00;101043.56;4948675;28;20083;-70
2023/06/21 04:28:01;;;;;;;18.80;9.20;;;;;;;18.11;100.00;101048.91;4954764;28;20548;-68
2023/06/21 04:30:33;;;;;;;21.02;9.65;;;;;;;18.14;100.00;101048.00;4948259;28;20085;-72
2023/06/21 04:33:00;;;;;;;17.77;9.23;;;;;;;18.14;100.00;101048.78;4948767;28;20051;-71
2023/06/21 04:35:26;;;;;;;19.90;8.45;;;;;;;18.19;100.00;101051.00;4948412;28;20055;-70
2023/06/21 04:37:53;;;;;;;16.60;8.30;;;;;;;18.25;100.00;101062.44;4948476;28;20154;-71
2023/06/21 04:40:21;;;;;;;18.50;8.55;;;;;;;18.17;100.00;101056.31;4948030;28;20134;-71
2023/06/21 04:42:54;;;;;;;17.85;8.00;;;;;;;18.23;100.00;101067.75;4940937;29;20043;-69
2023/06/21 04:45:22;;;;;;;16.77;8.50;;;;;;;18.23;100.00;101068.50;4948339;28;20067;-72
2023/06/21 04:47:48;;;;;;;17.67;8.02;;;;;;;18.16;100.00;101074.41;4979602;28;20047;-71
2023/06/21 04:50:16;;;;;;;19.80;9.68;;;;;;;18.21;100.00;101079.47;4948258;28;20062;-70
2023/06/21 04:52:48;;;;;;;19.65;9.23;;;;;;;18.24;100.00;101084.19;4941163;28;20590;-72
2023/06/21 04:55:17;;;;;;;20.02;7.93;;;;;;;18.28;100.00;101087.63;4945367;28;20055;-72
2023/06/21 04:57:46;;;;;;;16.27;7.50;;;;;;;18.36;100.00;101093.78;4942673;28;20058;-71
2023/06/21 05:00:14;;;;;;;19.00;9.25;;;;;;;18.37;100.00;101090.50;4948879;28;20110;-72
2023/06/21 05:02:40;;;;;;;18.88;8.88;;;;;;;18.32;100.00;101079.03;4948060;28;20047;-70
2023/06/21 05:05:07;;;;;;;17.92;9.02;;;;;;;18.54;100.00;101091.03;4954851;28;20055;-71
2023/06/21 05:07:37;;;;;;;22.65;10.32;;;;;;;18.53;100.00;101092.28;4947571;28;20055;-71
2023/06/21 05:10:08;;;;;;;20.08;9.82;;;;;;;18.67;100.00;101106.56;4948451;28;20638;-66
2023/06/21 05:12:38;;;;;;;20.17;9.20;;;;;;;18.56;100.00;101100.56;4948570;28;20043;-70
2023/06/21 05:15:05;;;;;;;21.63;8.93;;;;;;;18.70;100.00;101097.19;4947788;28;20054;-70
2023/06/21 05:17:33;;;;;;;21.83;9.80;;;;;;;18.68;100.00;101093.25;4952113;28;20478;-70
2023/06/21 05:20:02;;;;;;;23.60;10.20;;;;;;;18.78;100.00;101103.34;4951985;28;20058;-69
2023/06/21 05:22:29;;;;;;;18.38;9.07;;;;;;;18.87;100.00;101109.78;4949872;28;20055;-72
2023/06/21 05:24:56;;;;;;;23.58;10.30;;;;;;;18.89;100.00;101106.50;4953306;28;20646;-69
2023/06/21 05:27:23;;;;;;;18.65;9.32;;;;;;;19.02;100.00;101110.78;4954031;28;20047;-72
2023/06/21 05:29:50;;;;;;;13.05;4.20;;;;;;;18.94;100.00;101123.56;4981272;28;20075;-70
2023/06/21 05:32:16;;;;;;;21.55;10.32;;;;;;;19.09;100.00;101107.66;4952053;28;20050;-71
2023/06/21 05:34:43;;;;;;;18.92;10.30;;;;;;;19.21;100.00;101111.59;4950459;28;20067;-69
2023/06/21 05:37:09;;;;;;;15.63;6.75;;;;;;;19.06;100.00;101114.22;4951582;28;20506;-70
2023/06/21 05:39:36;;;;;;;16.40;8.18;;;;;;;19.22;100.00;101119.59;4951632;28;20101;-70
2023/06/21 05:42:03;;;;;;;17.45;9.90;;;;;;;19.22;100.00;101116.78;4949205;28;20087;-71
2023/06/21 05:44:29;;;;;;;18.65;9.32;;;;;;;19.24;100.00;101114.25;4947781;28;20142;-70
2023/06/21 05:46:56;;;;;;;20.83;9.35;;;;;;;19.35;100.00;101100.47;4950688;28;20552;-73
2023/06/21 05:49:22;;;;;;;19.73;8.80;;;;;;;19.38;100.00;101104.41;4945476;28;20105;-71
2023/06/21 05:51:49;;;;;;;17.67;8.38;;;;;;;19.48;100.00;101109.59;4951758;28;20055;-70
2023/06/21 05:54:15;;;;;;;20.65;8.68;;;;;;;19.49;100.00;101118.84;4941749;28;20127;-73
2023/06/21 05:56:42;;;;;;;18.98;9.15;;;;;;;19.47;100.00;101121.31;4948544;28;20370;-69
2023/06/21 05:59:08;;;;;;;18.25;9.30;;;;;;;19.59;100.00;101120.41;4950997;28;20075;-70
2023/06/21 06:01:35;;;;;;;20.40;9.30;;;;;;;19.66;100.00;101126.53;4946806;28;20048;-68
2023/06/21 06:04:02;;;;;;;23.08;9.25;;;;;;;19.72;100.00;101124.63;4950618;28;20055;-70
2023/06/21 06:06:38;;;;;;;21.42;10.27;;;;;;;19.81;100.00;101135.13;4950338;28;20118;-69
2023/06/21 06:09:09;;;;;;;18.25;8.75;;;;;;;19.77;100.00;101128.88;4947517;28;20600;-68
2023/06/21 06:11:36;;;;;;;20.00;9.70;;;;;;;19.89;100.00;101125.09;4959186;28;20046;-70
2023/06/21 06:14:03;;;;;;;21.85;9.48;;;;;;;20.00;100.00;101135.91;4950131;28;20051;-69
2023/06/21 06:16:29;;;;;;;17.90;9.75;;;;;;;20.15;100.00;101142.47;4950432;28;20055;-70
2023/06/21 06:18:56;;;;;;;19.90;9.65;;;;;;;20.14;100.00;101140.88;4947761;28;20047;-69
2023/06/21 06:21:22;;;;;;;30.27;10.18;;;;;;;20.38;100.00;101153.88;4950153;28;20581;-71
2023/06/21 06:23:53;;;;;;;22.65;9.60;;;;;;;20.32;100.00;101141.66;4950755;28;20074;-71
2023/06/21 06:26:24;;;;;;;14.70;7.35;;;;;;;20.18;100.00;101150.75;4947756;28;20061;-71
2023/06/21 06:28:51;;;;;;;21.20;10.85;;;;;;;20.36;100.00;101153.59;4950403;28;20047;-71
2023/06/21 06:31:30;;;;;;;19.63;9.82;;;;;;;20.43;100.00;101167.38;4950500;28;20098;-72
2023/06/21 06:33:56;;;;;;;23.10;11.30;;;;;;;20.50;100.00;101169.88;4944430;29;20086;-72
2023/06/21 06:36:23;;;;;;;21.30;11.73;;;;;;;20.73;100.00;101177.66;4946182;28;20051;-71
2023/06/21 06:38:51;;;;;;;24.88;13.65;;;;;;;20.83;100.00;101179.16;4947152;28;20046;-69
2023/06/21 06:41:19;;;;;;;23.10;14.30;;;;;;;20.98;100.00;101165.16;4946847;29;20051;-70
2023/06/21 06:43:45;;;;;;;23.98;14.32;;;;;;;20.90;100.00;101175.22;4949790;28;20055;-69
2023/06/21 06:46:12;;;;;;;21.48;13.40;;;;;;;20.95;100.00;101164.06;4949867;28;20513;-70
2023/06/21 06:48:39;;;;;;;28.30;15.93;;;;;;;20.80;100.00;101176.50;4950422;28;20223;-72
2023/06/21 06:51:05;;;;;;;25.58;15.88;;;;;;;20.82;100.00;101174.00;4949747;28;20356;-66
2023/06/21 06:53:32;;;;;;;25.45;15.48;;;;;;;21.02;100.00;101171.41;4943016;28;20142;-67
2023/06/21 06:55:59;;;;;;;28.25;17.55;;;;;;;21.04;100.00;101166.84;4948963;28;20429;-68
2023/06/21 06:58:27;;;;;;;25.52;16.58;;;;;;;21.01;100.00;101187.59;4947196;28;20066;-67
2023/06/21 07:00:54;;;;;;;27.55;20.00;;;;;;;21.18;100.00;101182.31;4949114;28;20054;-69
2023/06/21 07:03:21;;;;;;;31.70;20.60;;;;;;;20.98;100.00;101188.53;4947920;28;20039;-70
2023/06/21 07:05:48;;;;;;;27.65;20.70;;;;;;;20.96;100.00;101196.72;4952362;28;20051;-69
2023/06/21 07:08:15;;;;;;;34.22;22.30;;;;;;;21.04;100.00;101186.63;4948788;28;20075;-68
2023/06/21 07:10:43;;;;;;;32.13;21.15;;;;;;;20.94;100.00;101187.16;4943208;29;20058;-67
2023/06/21 07:13:09;;;;;;;31.15;21.70;;;;;;;20.92;100.00;101192.44;4947903;28;20537;-71
2023/06/21 07:15:36;;;;;;;33.67;22.13;;;;;;;20.91;100.00;101188.88;4945967;28;20485;-67
2023/06/21 07:18:03;;;;;;;32.95;24.25;;;;;;;21.10;100.00;101184.72;4948631;28;20110;-68
2023/06/21 07:20:30;;;;;;;32.30;20.90;;;;;;;21.11;100.00;101197.59;4949811;28;20050;-70
2023/06/21 07:22:57;;;;;;;29.90;20.75;;;;;;;20.89;100.00;101197.03;4949762;28;20048;-70
2023/06/21 07:25:24;;;;;;;35.72;26.58;;;;;;;21.06;100.00;101186.94;4948376;28;20118;-67
2023/06/21 07:27:51;;;;;;;33.63;24.30;;;;;;;21.23;100.00;101196.56;4946614;28;20529;-69
2023/06/21 07:30:18;;;;;;;32.00;24.35;;;;;;;21.47;100.00;101190.94;4944355;28;20422;-70
2023/06/21 07:32:47;;;;;;;34.85;25.35;;;;;;;21.66;100.00;101189.56;4946538;28;20055;-70
2023/06/21 07:35:15;;;;;;;31.77;23.40;;;;;;;21.79;100.00;101179.56;4948586;28;20054;-67
2023/06/21 07:37:42;;;;;;;30.80;24.33;;;;;;;21.88;100.00;101173.81;4948493;28;20880;-69
2023/06/21 07:40:10;;;;;;;31.67;22.63;;;;;;;21.97;100.00;101185.06;4949683;28;20058;-71
2023/06/21 07:42:38;;;;;;;29.33;19.35;;;;;;;21.79;100.00;101179.56;4948999;28;20051;-70
2023/06/21 07:45:07;;;;;;;34.25;23.67;;;;;;;22.13;100.00;101181.78;4948352;28;20140;-71
2023/06/21 07:47:33;;;;;;;35.22;24.42;;;;;;;22.17;100.00;101193.69;4946908;28;20569;-70
2023/06/21 07:50:00;;;;;;;38.20;25.63;;;;;;;22.19;100.00;101190.38;4948468;28;20072;-68
2023/06/21 07:52:46;;;;;;;36.38;26.17;;;;;;;22.23;100.00;101188.13;4945931;28;20051;-68
2023/06/21 07:55:12;;;;;;;39.20;26.42;;;;;;;22.25;100.00;101193.31;4942676;28;20059;-70
2023/06/21 07:57:39;;;;;;;37.47;25.25;;;;;;;22.48;100.00;101189.66;4946795;29;20069;-71
2023/06/21 08:00:11;;;;;;;38.92;23.45;;;;;;;22.35;100.00;101206.16;4947969;28;20142;-67
2023/06/21 08:02:39;;;;;;;32.72;22.08;;;;;;;22.26;100.00;101206.19;4942059;28;20058;-70
2023/06/21 08:05:06;;;;;;;31.23;21.92;;;;;;;22.36;100.00;101200.00;4948796;28;20482;-67
2023/06/21 08:07:33;;;;;;;28.67;21.88;;;;;;;22.39;100.00;101207.53;4955997;28;20525;-72
2023/06/21 08:10:00;;;;;;;29.70;21.17;;;;;;;22.41;100.00;101218.38;4947288;28;20146;-68
2023/06/21 08:12:26;;;;;;;31.25;20.63;;;;;;;22.33;100.00;101212.28;4953680;28;20050;-69
2023/06/21 08:14:53;;;;;;;30.05;20.00;;;;;;;22.04;100.00;101207.34;4948719;28;20207;-65
2023/06/21 08:17:19;;;;;;;22.13;12.30;;;;;;;21.87;100.00;101211.09;4946961;28;20105;-67
2023/06/21 08:19:46;;;;;;;29.00;21.42;;;;;;;22.14;100.00;101206.00;4956839;28;20043;-68
2023/06/21 08:22:13;;;;;;;28.95;21.67;;;;;;;22.33;100.00;101209.47;4948207;28;20514;-66
2023/06/21 08:24:39;;;;;;;30.70;21.73;;;;;;;22.48;100.00;101212.31;4948617;28;20138;-68
2023/06/21 08:27:06;;;;;;;13.32;6.22;;;;;;;22.42;100.00;101219.94;4948932;28;20082;-66
2023/06/21 08:29:33;;;;;;;19.70;13.43;;;;;;;22.29;100.00;101210.88;4948543;28;20137;-69
2023/06/21 08:31:59;;;;;;;23.17;14.50;;;;;;;22.30;100.00;101206.81;4946804;28;20126;-68
2023/06/21 08:34:26;;;;;;;28.40;18.90;;;;;;;22.69;100.00;101206.25;4943540;28;20067;-68
2023/06/21 08:36:53;;;;;;;21.67;13.85;;;;;;;22.65;100.00;101211.34;4947902;28;20114;-71
2023/06/21 08:39:19;;;;;;;26.25;16.70;;;;;;;22.57;100.00;101209.38;4950822;28;20529;-68
2023/06/21 08:41:46;;;;;;;26.20;20.02;;;;;;;22.82;100.00;101206.72;4947668;28;20043;-69
2023/06/21 08:44:13;;;;;;;20.92;13.15;;;;;;;22.81;100.00;101207.22;4947301;28;20470;-70
2023/06/21 08:46:42;;;;;;;27.13;20.38;;;;;;;23.12;100.00;101222.44;4946364;28;20118;-74
2023/06/21 08:49:16;;;;;;;27.50;20.17;;;;;;;23.32;100.00;101213.19;4950332;28;20051;-71
2023/06/21 08:51:45;;;;;;;25.30;19.48;;;;;;;23.37;100.00;101216.13;4951130;28;20063;-69
2023/06/21 08:54:13;;;;;;;25.23;15.50;;;;;;;23.21;100.00;101213.03;4947032;28;20078;-71
2023/06/21 08:57:06;;;;;;;23.20;15.90;;;;;;;23.16;100.00;101214.53;4956987;28;20055;-70
2023/06/21 08:59:50;;;;;;;28.02;20.45;;;;;;;23.35;100.00;101217.84;4945039;29;20074;-69
2023/06/21 09:02:41;;;;;;;31.40;22.02;;;;;;;23.47;100.00;101225.28;4951296;28;20114;-72
2023/06/21 09:05:27;;;;;;;30.30;21.50;;;;;;;23.25;100.00;101224.97;4948678;28;20051;-72
2023/06/21 09:07:56;;;;;;;29.35;19.63;;;;;;;23.33;100.00;101220.44;4949503;28;20121;-70
2023/06/21 09:10:26;;;;;;;26.83;17.63;;;;;;;23.13;100.00;101218.34;4949508;28;20078;-67
2023/06/21 09:12:56;;;;;;;23.85;12.82;;;;;;;23.04;100.00;101226.97;4951012;28;20043;-70
2023/06/21 09:15:25;;;;;;;24.73;16.85;;;;;;;23.23;100.00;101224.66;4950700;29;20166;-69
2023/06/21 09:17:56;;;;;;;23.77;16.88;;;;;;;23.33;100.00;101228.94;4951138;29;20062;-69
2023/06/21 09:20:28;;;;;;;21.50;15.32;;;;;;;23.21;100.00;101222.31;4949278;28;20162;-68
2023/06/21 09:22:57;;;;;;;22.98;15.25;;;;;;;23.32;100.00;101227.38;4952057;28;20101;-68
2023/06/21 09:25:25;;;;;;;23.75;15.27;;;;;;;23.30;100.00;101233.56;4949409;28;20572;-67
2023/06/21 09:27:55;;;;;;;21.95;14.52;;;;;;;23.10;100.00;101232.72;4950206;29;20047;-67
2023/06/21 09:30:23;;;;;;;16.35;8.80;;;;;;;22.80;100.00;101229.09;4950110;28;20102;-66
2023/06/21 09:33:05;;;;;;;22.17;15.23;;;;;;;22.97;100.00;101226.56;4951184;28;20074;-66
2023/06/21 09:35:32;;;;;;;21.33;15.68;;;;;;;22.93;100.00;101225.97;4949732;28;20067;-68
2023/06/21 09:37:59;;;;;;;20.73;13.75;;;;;;;23.03;100.00;101227.44;4949412;28;20058;-69
2023/06/21 09:40:25;;;;;;;23.70;15.20;;;;;;;23.18;100.00;101228.19;4951224;28;20418;-66
2023/06/21 09:42:53;;;;;;;21.75;13.43;;;;;;;23.23;100.00;101225.47;4948167;28;20369;-69
2023/06/21 09:45:20;;;;;;;22.55;14.82;;;;;;;23.46;100.00;101229.38;4950246;28;20418;-69
2023/06/21 09:47:47;;;;;;;19.55;13.07;;;;;;;23.62;100.00;101231.69;4945954;28;20051;-69
2023/06/21 09:50:14;;;;;;;15.88;8.13;;;;;;;23.68;100.00;101235.38;4948893;28;20389;-65
2023/06/21 09:52:44;;;;;;;19.58;12.82;;;;;;;23.64;100.00;101229.94;4951459;28;20055;-64
2023/06/21 09:55:15;;;;;;;14.10;8.25;;;;;;;23.42;100.00;101234.50;4946548;28;20052;-69
2023/06/21 09:57:43;;;;;;;14.85;6.70;;;;;;;23.42;100.00;101226.00;4940618;28;20827;-69
2023/06/21 10:00:10;;;;;;;18.75;10.55;;;;;;;23.59;100.00;101227.75;4947973;28;20051;-69
2023/06/21 10:02:41;;;;;;;17.17;11.30;;;;;;;23.75;100.00;101223.59;4945542;28;20074;-69
2023/06/21 10:05:18;;;;;;;11.02;5.72;;;;;;;23.85;100.00;101219.34;4953876;28;20758;-68
2023/06/21 10:07:48;;;;;;;16.52;8.55;;;;;;;24.15;100.00;101226.41;4948478;28;20113;-68
2023/06/21 10:10:14;;;;;;;7.78;3.35;;;;;;;24.10;100.00;101222.22;4951148;28;20051;-68
2023/06/21 10:12:54;;;;;;;14.52;7.40;;;;;;;24.40;100.00;101222.84;4947772;28;20046;-68
2023/06/21 10:15:22;;;;;;;13.07;7.43;;;;;;;24.50;100.00;101229.91;4948848;29;20047;-70
2023/06/21 10:17:51;;;;;;;13.82;6.90;;;;;;;24.77;100.00;101237.16;4945920;28;20150;-68
2023/06/21 10:20:31;;;;;;;14.90;7.18;;;;;;;24.74;100.00;101235.31;4957307;28;20751;-67
2023/06/21 10:23:01;;;;;;;12.65;7.43;;;;;;;24.70;100.00;101241.22;4950783;28;20042;-68
2023/06/21 10:25:28;;;;;;;16.17;8.68;;;;;;;24.75;100.00;101249.03;4949593;28;20059;-69
2023/06/21 10:27:59;;;;;;;13.20;7.57;;;;;;;24.52;100.00;101247.25;4949954;28;20047;-68
2023/06/21 10:30:27;;;;;;;13.07;6.53;;;;;;;24.43;100.00;101247.41;4948160;29;20110;-67
2023/06/21 10:32:57;;;;;;;14.40;8.40;;;;;;;24.48;100.00;101258.81;4949088;28;20125;-67
2023/06/21 10:35:27;;;;;;;17.80;11.32;;;;;;;24.46;100.00;101257.78;4949930;28;20050;-67
2023/06/21 10:38:11;;;;;;;18.90;12.00;;;;;;;24.46;100.00;101265.53;4947605;28;20058;-67
2023/06/21 10:40:39;;;;;;;16.70;12.18;;;;;;;24.41;100.00;101262.13;4949412;29;20059;-68
2023/06/21 10:43:08;;;;;;;19.30;12.85;;;;;;;24.32;100.00;101276.50;4942369;28;20059;-67
2023/06/21 10:45:35;;;;;;;17.23;10.20;;;;;;;24.00;100.00;101262.66;4947715;29;20121;-69
2023/06/21 10:48:02;;;;;;;19.08;12.27;;;;;;;24.13;100.00;101268.75;4958801;28;20066;-71
2023/06/21 10:50:30;;;;;;;22.63;11.48;;;;;;;24.09;100.00;101271.81;4950063;28;20547;-72
2023/06/21 10:52:58;;;;;;;19.35;11.15;;;;;;;24.17;100.00;101281.44;4949410;28;20053;-71
2023/06/21 10:55:25;;;;;;;19.63;12.18;;;;;;;24.36;100.00;101273.44;4946228;28;20185;-70
2023/06/21 10:57:53;;;;;;;20.92;10.88;;;;;;;24.70;100.00;101278.19;4948556;28;20051;-69
2023/06/21 11:00:25;;;;;;;18.90;10.85;;;;;;;24.94;100.00;101278.69;4950273;28;20180;-72
2023/06/21 11:02:53;;;;;;;20.40;11.48;;;;;;;25.09;100.00;101278.56;4949045;28;20058;-72
2023/06/21 11:05:23;;;;;;;16.88;11.00;;;;;;;25.29;100.00;101287.78;4949559;28;20126;-72
2023/06/21 11:08:06;;;;;;;17.38;10.07;;;;;;;25.35;100.00;101291.41;4949098;29;20798;-70
2023/06/21 11:10:49;;;;;;;13.93;8.23;;;;;;;25.39;100.00;101288.34;4947925;28;20091;-71
2023/06/21 11:13:32;;;;;;;13.93;7.72;;;;;;;25.42;100.00;101287.34;4946696;28;20125;-69